W4HIX-2 Palmetto FL US current weather conditions

sailwx.info

Wind from 143 at 4 knots gusting 13

Air temperature 27.8° C
Dewpoint 23.6° C

Last reported at 2020-Aug-09 03:25 UTC.
Time now 2020-Aug-10 04:31 UTC

Location: N 27°32' W 082°38'.
View on Google Maps.

See reports from other nearby stations

  
Tides and Currents Weather Stations Pressure Air Temp Water Temp Dewpoint Dewpoint Depression Visibility Wind Speed Wind Dir Waves Ship Positions
date/time (UTC)wind fromknots sea level pressurealtimeterstation pressurevisibilityair tempwater tempwave heightnotes
2020-Aug-09 03:25 143 4 gusting 13 27.8
2020-Aug-09 03:15 205 8 gusting 14 28.9
2020-Aug-09 03:05 171 10 gusting 15 29.4
2020-Aug-09 02:55 058 29.4
2020-Aug-09 02:45 050 29.4
2020-Aug-09 02:35 302 29.4
2020-Aug-09 02:25 303 29.4
2020-Aug-09 02:15 303 29.4
2020-Aug-09 02:05 302 30.0
2020-Aug-09 01:55 302 30.0
2020-Aug-09 01:45 281 0 gusting 5 30.0
2020-Aug-09 01:35 286 0 gusting 4 30.0
2020-Aug-09 01:25 277 0 gusting 5 30.0
2020-Aug-09 01:15 291 0 gusting 4 30.0
2020-Aug-09 01:05 296 0 gusting 3 30.6
2020-Aug-09 00:55 294 0 gusting 3 30.6
2020-Aug-09 00:45 303 30.6
2020-Aug-09 00:35 310 0 gusting 3 30.6
2020-Aug-09 00:25 319 0 gusting 3 30.6
2020-Aug-09 00:15 290 30.6
2020-Aug-09 00:05 290 31.1
2020-Aug-08 23:55 320 31.7
2020-Aug-08 23:45 332 32.2
2020-Aug-08 23:35 309 32.2
2020-Aug-08 23:25 304 0 gusting 5 32.2
2020-Aug-08 23:15 309 0 gusting 3 32.8
2020-Aug-08 23:05 299 1 gusting 6 32.8
2020-Aug-08 22:55 303 1 gusting 6 32.8
2020-Aug-08 22:45 297 1 gusting 6 32.8
2020-Aug-08 22:35 303 1 gusting 7 33.3
2020-Aug-08 22:25 309 1 gusting 7 32.8
2020-Aug-08 22:15 299 1 gusting 6 32.8
2020-Aug-08 22:05 312 1 gusting 6 32.8
2020-Aug-08 21:55 305 1 gusting 7 33.3
2020-Aug-08 21:45 315 1 gusting 7 32.8
2020-Aug-08 21:35 293 1 gusting 5 32.8
2020-Aug-08 21:31 298 1 gusting 7 32.8